sensor_id;sensor_type;location;lat;lon;timestamp;temperature;humidity
48836;DHT22;62581;47.342;7.908;2023-03-23T00:01:08;11.50;99.90
48836;DHT22;62581;47.342;7.908;2023-03-23T00:03:38;11.50;99.90
48836;DHT22;62581;47.342;7.908;2023-03-23T00:06:05;11.50;99.90
48836;DHT22;62581;47.342;7.908;2023-03-23T00:08:32;11.50;99.90
48836;DHT22;62581;47.342;7.908;2023-03-23T00:11:03;11.50;99.90
48836;DHT22;62581;47.342;7.908;2023-03-23T00:13:31;11.40;99.90
48836;DHT22;62581;47.342;7.908;2023-03-23T00:15:58;11.40;99.90
48836;DHT22;62581;47.342;7.908;2023-03-23T00:18:25;11.40;99.90
48836;DHT22;62581;47.342;7.908;2023-03-23T00:20:52;11.40;99.90
48836;DHT22;62581;47.342;7.908;2023-03-23T00:23:20;11.40;99.90
48836;DHT22;62581;47.342;7.908;2023-03-23T00:25:48;11.40;99.90
48836;DHT22;62581;47.342;7.908;2023-03-23T00:28:16;11.40;99.90
48836;DHT22;62581;47.342;7.908;2023-03-23T00:30:45;11.40;99.90
48836;DHT22;62581;47.342;7.908;2023-03-23T00:33:11;11.40;99.90
48836;DHT22;62581;47.342;7.908;2023-03-23T00:35:39;11.40;99.90
48836;DHT22;62581;47.342;7.908;2023-03-23T00:38:06;11.30;99.90
48836;DHT22;62581;47.342;7.908;2023-03-23T00:40:33;11.40;99.90
48836;DHT22;62581;47.342;7.908;2023-03-23T00:43:01;11.30;99.90
48836;DHT22;62581;47.342;7.908;2023-03-23T00:45:29;11.30;99.90
48836;DHT22;62581;47.342;7.908;2023-03-23T00:47:57;11.30;99.90
48836;DHT22;62581;47.342;7.908;2023-03-23T00:50:27;11.30;99.90
48836;DHT22;62581;47.342;7.908;2023-03-23T00:52:54;11.30;99.90
48836;DHT22;62581;47.342;7.908;2023-03-23T00:55:22;11.30;99.90
48836;DHT22;62581;47.342;7.908;2023-03-23T00:57:49;11.20;99.90
48836;DHT22;62581;47.342;7.908;2023-03-23T01:00:16;11.30;99.90
48836;DHT22;62581;47.342;7.908;2023-03-23T01:02:44;11.20;99.90
48836;DHT22;62581;47.342;7.908;2023-03-23T01:05:12;11.30;99.90
48836;DHT22;62581;47.342;7.908;2023-03-23T01:07:40;11.20;99.90
48836;DHT22;62581;47.342;7.908;2023-03-23T01:10:07;11.20;99.90
48836;DHT22;62581;47.342;7.908;2023-03-23T01:12:33;11.20;99.90
48836;DHT22;62581;47.342;7.908;2023-03-23T01:15:00;11.20;99.90
48836;DHT22;62581;47.342;7.908;2023-03-23T01:17:27;11.20;99.90
48836;DHT22;62581;47.342;7.908;2023-03-23T01:19:54;11.20;99.90
48836;DHT22;62581;47.342;7.908;2023-03-23T01:22:23;11.20;99.90
48836;DHT22;62581;47.342;7.908;2023-03-23T01:24:50;11.20;99.90
48836;DHT22;62581;47.342;7.908;2023-03-23T01:27:17;11.20;99.90
48836;DHT22;62581;47.342;7.908;2023-03-23T01:29:43;11.10;99.90
48836;DHT22;62581;47.342;7.908;2023-03-23T01:32:10;11.10;99.90
48836;DHT22;62581;47.342;7.908;2023-03-23T01:34:37;11.10;99.90
48836;DHT22;62581;47.342;7.908;2023-03-23T01:37:03;11.10;99.90
48836;DHT22;62581;47.342;7.908;2023-03-23T01:39:32;11.10;99.90
48836;DHT22;62581;47.342;7.908;2023-03-23T01:41:58;11.10;99.90
48836;DHT22;62581;47.342;7.908;2023-03-23T01:47:11;11.10;99.90
48836;DHT22;62581;47.342;7.908;2023-03-23T01:49:38;11.10;99.90
48836;DHT22;62581;47.342;7.908;2023-03-23T01:52:08;11.20;99.90
48836;DHT22;62581;47.342;7.908;2023-03-23T01:54:37;11.20;99.90
48836;DHT22;62581;47.342;7.908;2023-03-23T01:57:06;11.20;99.90
48836;DHT22;62581;47.342;7.908;2023-03-23T01:59:33;11.00;99.90
48836;DHT22;62581;47.342;7.908;2023-03-23T02:02:01;11.00;99.90
48836;DHT22;62581;47.342;7.908;2023-03-23T02:04:28;11.00;99.90
48836;DHT22;62581;47.342;7.908;2023-03-23T02:06:55;11.00;99.90
48836;DHT22;62581;47.342;7.908;2023-03-23T02:09:23;11.00;99.90
48836;DHT22;62581;47.342;7.908;2023-03-23T02:11:52;11.00;99.90
48836;DHT22;62581;47.342;7.908;2023-03-23T02:14:19;11.00;99.90
48836;DHT22;62581;47.342;7.908;2023-03-23T02:16:47;11.00;99.90
48836;DHT22;62581;47.342;7.908;2023-03-23T02:19:23;11.00;99.90
48836;DHT22;62581;47.342;7.908;2023-03-23T02:22:13;11.10;99.90
48836;DHT22;62581;47.342;7.908;2023-03-23T02:24:50;11.00;99.90
48836;DHT22;62581;47.342;7.908;2023-03-23T02:27:24;11.00;99.90
48836;DHT22;62581;47.342;7.908;2023-03-23T02:30:04;11.00;99.90
48836;DHT22;62581;47.342;7.908;2023-03-23T02:35:21;11.00;99.90
48836;DHT22;62581;47.342;7.908;2023-03-23T02:37:51;10.90;99.90
48836;DHT22;62581;47.342;7.908;2023-03-23T02:40:19;11.00;99.90
48836;DHT22;62581;47.342;7.908;2023-03-23T02:42:48;11.00;99.90
48836;DHT22;62581;47.342;7.908;2023-03-23T02:45:16;11.00;99.90
48836;DHT22;62581;47.342;7.908;2023-03-23T02:47:43;11.00;99.90
48836;DHT22;62581;47.342;7.908;2023-03-23T02:50:13;10.90;99.90
48836;DHT22;62581;47.342;7.908;2023-03-23T02:52:42;11.00;99.90
48836;DHT22;62581;47.342;7.908;2023-03-23T02:55:10;10.90;99.90
48836;DHT22;62581;47.342;7.908;2023-03-23T02:57:38;10.90;99.90
48836;DHT22;62581;47.342;7.908;2023-03-23T03:00:06;10.90;99.90
48836;DHT22;62581;47.342;7.908;2023-03-23T03:02:35;10.90;99.90
48836;DHT22;62581;47.342;7.908;2023-03-23T03:05:03;10.80;99.90
48836;DHT22;62581;47.342;7.908;2023-03-23T03:07:36;10.80;99.90
48836;DHT22;62581;47.342;7.908;2023-03-23T03:10:10;10.70;99.90
48836;DHT22;62581;47.342;7.908;2023-03-23T03:12:43;10.70;99.90
48836;DHT22;62581;47.342;7.908;2023-03-23T03:15:15;10.60;99.90
48836;DHT22;62581;47.342;7.908;2023-03-23T03:17:45;10.60;99.90
48836;DHT22;62581;47.342;7.908;2023-03-23T03:20:13;10.70;99.90
48836;DHT22;62581;47.342;7.908;2023-03-23T03:22:41;10.60;99.90
48836;DHT22;62581;47.342;7.908;2023-03-23T03:25:10;10.60;99.90
48836;DHT22;62581;47.342;7.908;2023-03-23T03:27:39;10.50;99.90
48836;DHT22;62581;47.342;7.908;2023-03-23T03:30:07;10.40;99.90
48836;DHT22;62581;47.342;7.908;2023-03-23T03:32:38;10.40;99.90
48836;DHT22;62581;47.342;7.908;2023-03-23T03:35:07;10.40;99.90
48836;DHT22;62581;47.342;7.908;2023-03-23T03:37:34;10.40;99.90
48836;DHT22;62581;47.342;7.908;2023-03-23T03:40:04;10.40;99.90
48836;DHT22;62581;47.342;7.908;2023-03-23T03:42:37;10.40;99.90
48836;DHT22;62581;47.342;7.908;2023-03-23T03:45:04;10.40;99.90
48836;DHT22;62581;47.342;7.908;2023-03-23T03:47:32;10.40;99.90
48836;DHT22;62581;47.342;7.908;2023-03-23T03:49:59;10.40;99.90
48836;DHT22;62581;47.342;7.908;2023-03-23T03:52:26;10.40;99.90
48836;DHT22;62581;47.342;7.908;2023-03-23T03:54:54;10.30;99.90
48836;DHT22;62581;47.342;7.908;2023-03-23T03:57:21;10.30;99.90
48836;DHT22;62581;47.342;7.908;2023-03-23T03:59:49;10.20;99.90
48836;DHT22;62581;47.342;7.908;2023-03-23T04:02:16;10.10;99.90
48836;DHT22;62581;47.342;7.908;2023-03-23T04:04:45;10.10;99.90
48836;DHT22;62581;47.342;7.908;2023-03-23T04:07:12;10.10;99.90
48836;DHT22;62581;47.342;7.908;2023-03-23T04:09:39;10.00;99.90
48836;DHT22;62581;47.342;7.908;2023-03-23T04:12:06;10.00;99.90
48836;DHT22;62581;47.342;7.908;2023-03-23T04:14:33;10.00;99.90
48836;DHT22;62581;47.342;7.908;2023-03-23T04:17:01;10.00;99.90
48836;DHT22;62581;47.342;7.908;2023-03-23T04:19:28;10.00;99.90
48836;DHT22;62581;47.342;7.908;2023-03-23T04:21:58;10.00;99.90
48836;DHT22;62581;47.342;7.908;2023-03-23T04:24:25;10.00;99.90
48836;DHT22;62581;47.342;7.908;2023-03-23T04:26:53;10.10;99.90
48836;DHT22;62581;47.342;7.908;2023-03-23T04:29:20;10.10;99.90
48836;DHT22;62581;47.342;7.908;2023-03-23T04:31:47;10.10;99.90
48836;DHT22;62581;47.342;7.908;2023-03-23T04:34:17;10.10;99.90
48836;DHT22;62581;47.342;7.908;2023-03-23T04:36:44;10.10;99.90
48836;DHT22;62581;47.342;7.908;2023-03-23T04:39:11;10.10;99.90
48836;DHT22;62581;47.342;7.908;2023-03-23T04:41:38;10.10;99.90
48836;DHT22;62581;47.342;7.908;2023-03-23T04:44:06;10.10;99.90
48836;DHT22;62581;47.342;7.908;2023-03-23T04:46:33;10.10;99.90
48836;DHT22;62581;47.342;7.908;2023-03-23T04:49:00;10.20;99.90
48836;DHT22;62581;47.342;7.908;2023-03-23T04:51:29;10.20;99.90
48836;DHT22;62581;47.342;7.908;2023-03-23T04:53:58;10.30;99.90
48836;DHT22;62581;47.342;7.908;2023-03-23T04:56:25;10.30;99.90
48836;DHT22;62581;47.342;7.908;2023-03-23T04:58:52;10.30;99.90
48836;DHT22;62581;47.342;7.908;2023-03-23T05:01:19;10.40;99.90
48836;DHT22;62581;47.342;7.908;2023-03-23T05:03:46;10.40;99.90
48836;DHT22;62581;47.342;7.908;2023-03-23T05:06:13;10.40;99.90
48836;DHT22;62581;47.342;7.908;2023-03-23T05:08:41;10.30;99.90
48836;DHT22;62581;47.342;7.908;2023-03-23T05:11:08;10.30;99.90
48836;DHT22;62581;47.342;7.908;2023-03-23T05:13:35;10.30;99.90
48836;DHT22;62581;47.342;7.908;2023-03-23T05:16:05;10.30;99.90
48836;DHT22;62581;47.342;7.908;2023-03-23T05:18:32;10.30;99.90
48836;DHT22;62581;47.342;7.908;2023-03-23T05:20:59;10.30;99.90
48836;DHT22;62581;47.342;7.908;2023-03-23T05:23:26;10.20;99.90
48836;DHT22;62581;47.342;7.908;2023-03-23T05:25:57;10.30;99.90
48836;DHT22;62581;47.342;7.908;2023-03-23T05:28:27;10.30;99.90
48836;DHT22;62581;47.342;7.908;2023-03-23T05:30:55;10.30;99.90
48836;DHT22;62581;47.342;7.908;2023-03-23T05:33:22;10.20;99.90
48836;DHT22;62581;47.342;7.908;2023-03-23T05:35:49;10.20;99.90
48836;DHT22;62581;47.342;7.908;2023-03-23T05:38:16;10.20;99.90
48836;DHT22;62581;47.342;7.908;2023-03-23T05:40:43;10.20;99.90
48836;DHT22;62581;47.342;7.908;2023-03-23T05:43:11;10.20;99.90
48836;DHT22;62581;47.342;7.908;2023-03-23T05:45:38;10.20;99.90
48836;DHT22;62581;47.342;7.908;2023-03-23T05:48:05;10.30;99.90
48836;DHT22;62581;47.342;7.908;2023-03-23T05:50:32;10.30;99.90
48836;DHT22;62581;47.342;7.908;2023-03-23T05:52:58;10.30;99.90
48836;DHT22;62581;47.342;7.908;2023-03-23T05:55:25;10.30;99.90
48836;DHT22;62581;47.342;7.908;2023-03-23T05:57:52;10.30;99.90
48836;DHT22;62581;47.342;7.908;2023-03-23T06:00:21;10.30;99.90
48836;DHT22;62581;47.342;7.908;2023-03-23T06:02:48;10.30;99.90
48836;DHT22;62581;47.342;7.908;2023-03-23T06:05:16;10.30;99.90
48836;DHT22;62581;47.342;7.908;2023-03-23T06:07:43;10.30;99.90
48836;DHT22;62581;47.342;7.908;2023-03-23T06:10:10;10.40;99.90
48836;DHT22;62581;47.342;7.908;2023-03-23T06:12:37;10.40;99.90
48836;DHT22;62581;47.342;7.908;2023-03-23T06:15:05;10.40;99.90
48836;DHT22;62581;47.342;7.908;2023-03-23T06:17:33;10.50;99.90
48836;DHT22;62581;47.342;7.908;2023-03-23T06:20:01;10.60;99.90
48836;DHT22;62581;47.342;7.908;2023-03-23T06:22:29;10.60;99.90
48836;DHT22;62581;47.342;7.908;2023-03-23T06:24:56;10.60;99.90
48836;DHT22;62581;47.342;7.908;2023-03-23T06:27:23;10.60;99.90
48836;DHT22;62581;47.342;7.908;2023-03-23T06:29:50;10.60;99.90
48836;DHT22;62581;47.342;7.908;2023-03-23T06:32:17;10.70;99.90
48836;DHT22;62581;47.342;7.908;2023-03-23T06:34:45;10.80;99.90
48836;DHT22;62581;47.342;7.908;2023-03-23T06:37:13;10.90;99.90
48836;DHT22;62581;47.342;7.908;2023-03-23T06:39:41;11.10;99.90
48836;DHT22;62581;47.342;7.908;2023-03-23T06:42:08;11.10;99.90
48836;DHT22;62581;47.342;7.908;2023-03-23T06:44:35;11.30;99.90
48836;DHT22;62581;47.342;7.908;2023-03-23T06:47:02;11.30;99.90
48836;DHT22;62581;47.342;7.908;2023-03-23T06:49:28;11.40;99.90
48836;DHT22;62581;47.342;7.908;2023-03-23T06:51:57;11.30;99.90
48836;DHT22;62581;47.342;7.908;2023-03-23T06:54:25;11.30;99.90
48836;DHT22;62581;47.342;7.908;2023-03-23T06:56:52;11.30;99.90
48836;DHT22;62581;47.342;7.908;2023-03-23T06:59:19;11.40;99.90
48836;DHT22;62581;47.342;7.908;2023-03-23T07:01:46;11.40;99.90
48836;DHT22;62581;47.342;7.908;2023-03-23T07:04:13;11.40;99.90
48836;DHT22;62581;47.342;7.908;2023-03-23T07:06:41;11.40;99.90
48836;DHT22;62581;47.342;7.908;2023-03-23T07:09:09;11.40;99.90
48836;DHT22;62581;47.342;7.908;2023-03-23T07:11:36;11.40;99.90
48836;DHT22;62581;47.342;7.908;2023-03-23T07:14:03;11.40;99.90
48836;DHT22;62581;47.342;7.908;2023-03-23T07:16:30;11.40;99.90
48836;DHT22;62581;47.342;7.908;2023-03-23T07:18:57;11.40;99.90
48836;DHT22;62581;47.342;7.908;2023-03-23T07:21:24;11.40;99.90
48836;DHT22;62581;47.342;7.908;2023-03-23T07:23:51;11.50;99.90
48836;DHT22;62581;47.342;7.908;2023-03-23T07:26:19;11.60;99.90
48836;DHT22;62581;47.342;7.908;2023-03-23T07:28:46;11.60;99.90
48836;DHT22;62581;47.342;7.908;2023-03-23T07:31:13;11.70;99.90
48836;DHT22;62581;47.342;7.908;2023-03-23T07:33:40;11.70;99.90
48836;DHT22;62581;47.342;7.908;2023-03-23T07:36:07;11.70;99.90
48836;DHT22;62581;47.342;7.908;2023-03-23T07:38:34;11.70;99.90
48836;DHT22;62581;47.342;7.908;2023-03-23T07:41:01;11.80;99.90
48836;DHT22;62581;47.342;7.908;2023-03-23T07:43:29;11.80;99.90
48836;DHT22;62581;47.342;7.908;2023-03-23T07:45:56;11.80;99.90
48836;DHT22;62581;47.342;7.908;2023-03-23T07:48:23;11.90;99.90
48836;DHT22;62581;47.342;7.908;2023-03-23T07:50:49;12.00;99.90
48836;DHT22;62581;47.342;7.908;2023-03-23T07:53:16;12.00;99.90
48836;DHT22;62581;47.342;7.908;2023-03-23T07:55:43;12.10;99.90
48836;DHT22;62581;47.342;7.908;2023-03-23T07:58:10;12.30;99.90
48836;DHT22;62581;47.342;7.908;2023-03-23T08:00:43;12.40;99.90
48836;DHT22;62581;47.342;7.908;2023-03-23T08:03:11;12.50;99.90
48836;DHT22;62581;47.342;7.908;2023-03-23T08:05:37;12.60;99.90
48836;DHT22;62581;47.342;7.908;2023-03-23T08:08:04;12.70;99.90
48836;DHT22;62581;47.342;7.908;2023-03-23T08:10:32;12.70;99.90
48836;DHT22;62581;47.342;7.908;2023-03-23T08:12:59;12.70;99.90
48836;DHT22;62581;47.342;7.908;2023-03-23T08:15:26;12.70;99.90
48836;DHT22;62581;47.342;7.908;2023-03-23T08:17:54;12.80;99.90
48836;DHT22;62581;47.342;7.908;2023-03-23T08:20:21;12.70;99.90
48836;DHT22;62581;47.342;7.908;2023-03-23T08:22:51;12.70;99.90
48836;DHT22;62581;47.342;7.908;2023-03-23T08:25:19;12.80;99.90
48836;DHT22;62581;47.342;7.908;2023-03-23T08:27:46;13.00;99.90
48836;DHT22;62581;47.342;7.908;2023-03-23T08:30:14;13.10;99.90
48836;DHT22;62581;47.342;7.908;2023-03-23T08:32:41;13.30;99.90
48836;DHT22;62581;47.342;7.908;2023-03-23T08:35:11;13.40;99.90
48836;DHT22;62581;47.342;7.908;2023-03-23T08:37:38;13.50;99.90
48836;DHT22;62581;47.342;7.908;2023-03-23T08:40:07;13.60;99.90
48836;DHT22;62581;47.342;7.908;2023-03-23T08:42:35;13.70;99.90
48836;DHT22;62581;47.342;7.908;2023-03-23T08:45:03;13.80;99.90
48836;DHT22;62581;47.342;7.908;2023-03-23T08:47:29;13.80;99.90
48836;DHT22;62581;47.342;7.908;2023-03-23T08:49:56;13.70;99.90
48836;DHT22;62581;47.342;7.908;2023-03-23T08:52:24;13.80;99.90
48836;DHT22;62581;47.342;7.908;2023-03-23T08:54:51;13.80;99.90
48836;DHT22;62581;47.342;7.908;2023-03-23T08:57:18;13.80;99.90
48836;DHT22;62581;47.342;7.908;2023-03-23T08:59:45;14.00;99.90
48836;DHT22;62581;47.342;7.908;2023-03-23T09:02:12;14.10;99.90
48836;DHT22;62581;47.342;7.908;2023-03-23T09:04:39;14.30;99.90
48836;DHT22;62581;47.342;7.908;2023-03-23T09:07:08;14.60;99.90
48836;DHT22;62581;47.342;7.908;2023-03-23T09:09:36;14.80;99.90
48836;DHT22;62581;47.342;7.908;2023-03-23T09:12:04;14.90;99.90
48836;DHT22;62581;47.342;7.908;2023-03-23T09:14:31;15.00;99.90
48836;DHT22;62581;47.342;7.908;2023-03-23T09:16:58;15.10;99.90
48836;DHT22;62581;47.342;7.908;2023-03-23T09:19:25;15.20;99.90
48836;DHT22;62581;47.342;7.908;2023-03-23T09:21:51;15.30;99.90
48836;DHT22;62581;47.342;7.908;2023-03-23T09:24:18;15.40;99.90
48836;DHT22;62581;47.342;7.908;2023-03-23T09:26:47;15.20;99.90
48836;DHT22;62581;47.342;7.908;2023-03-23T09:29:14;15.30;99.90
48836;DHT22;62581;47.342;7.908;2023-03-23T09:31:42;15.20;99.90
48836;DHT22;62581;47.342;7.908;2023-03-23T09:34:12;15.20;99.90
48836;DHT22;62581;47.342;7.908;2023-03-23T09:36:40;15.40;99.90
48836;DHT22;62581;47.342;7.908;2023-03-23T09:39:08;15.40;99.90
48836;DHT22;62581;47.342;7.908;2023-03-23T09:41:41;15.60;99.90
48836;DHT22;62581;47.342;7.908;2023-03-23T09:44:14;15.70;99.90
48836;DHT22;62581;47.342;7.908;2023-03-23T09:46:45;15.70;99.90
48836;DHT22;62581;47.342;7.908;2023-03-23T09:49:15;15.80;99.90
48836;DHT22;62581;47.342;7.908;2023-03-23T09:51:44;16.00;99.90
48836;DHT22;62581;47.342;7.908;2023-03-23T09:54:14;16.10;99.90
48836;DHT22;62581;47.342;7.908;2023-03-23T09:56:42;16.20;99.90
48836;DHT22;62581;47.342;7.908;2023-03-23T09:59:12;16.20;99.90
48836;DHT22;62581;47.342;7.908;2023-03-23T10:01:41;16.30;99.90
48836;DHT22;62581;47.342;7.908;2023-03-23T10:04:12;16.40;99.90
48836;DHT22;62581;47.342;7.908;2023-03-23T10:06:38;16.40;99.90
48836;DHT22;62581;47.342;7.908;2023-03-23T10:09:05;16.30;99.90
48836;DHT22;62581;47.342;7.908;2023-03-23T10:11:36;16.30;99.90
48836;DHT22;62581;47.342;7.908;2023-03-23T10:14:15;16.30;99.90
48836;DHT22;62581;47.342;7.908;2023-03-23T10:16:46;16.30;99.90
48836;DHT22;62581;47.342;7.908;2023-03-23T10:19:17;16.50;99.90
48836;DHT22;62581;47.342;7.908;2023-03-23T10:21:47;16.60;99.90
48836;DHT22;62581;47.342;7.908;2023-03-23T10:24:17;16.90;99.90
48836;DHT22;62581;47.342;7.908;2023-03-23T10:26:48;17.10;99.90
48836;DHT22;62581;47.342;7.908;2023-03-23T10:29:20;17.20;99.90
48836;DHT22;62581;47.342;7.908;2023-03-23T10:31:49;17.30;99.90
48836;DHT22;62581;47.342;7.908;2023-03-23T10:34:18;17.40;99.90
48836;DHT22;62581;47.342;7.908;2023-03-23T10:36:51;17.50;99.90
48836;DHT22;62581;47.342;7.908;2023-03-23T10:39:19;17.60;99.90
48836;DHT22;62581;47.342;7.908;2023-03-23T10:41:48;17.60;99.90
48836;DHT22;62581;47.342;7.908;2023-03-23T10:44:16;17.60;99.90
48836;DHT22;62581;47.342;7.908;2023-03-23T10:46:45;17.50;99.90
48836;DHT22;62581;47.342;7.908;2023-03-23T10:49:15;17.50;99.90
48836;DHT22;62581;47.342;7.908;2023-03-23T10:51:44;17.50;99.90
48836;DHT22;62581;47.342;7.908;2023-03-23T10:54:24;17.50;99.90
48836;DHT22;62581;47.342;7.908;2023-03-23T10:56:51;17.60;99.90
48836;DHT22;62581;47.342;7.908;2023-03-23T10:59:19;17.90;99.90
48836;DHT22;62581;47.342;7.908;2023-03-23T11:01:48;17.90;99.90
48836;DHT22;62581;47.342;7.908;2023-03-23T11:04:17;17.90;99.90
48836;DHT22;62581;47.342;7.908;2023-03-23T11:06:45;17.90;99.90
48836;DHT22;62581;47.342;7.908;2023-03-23T11:09:13;17.90;99.90
48836;DHT22;62581;47.342;7.908;2023-03-23T11:11:41;18.10;99.90
48836;DHT22;62581;47.342;7.908;2023-03-23T11:14:16;18.40;99.90
48836;DHT22;62581;47.342;7.908;2023-03-23T11:16:43;18.80;99.90
48836;DHT22;62581;47.342;7.908;2023-03-23T11:19:13;18.80;99.90
48836;DHT22;62581;47.342;7.908;2023-03-23T11:21:40;19.00;99.90
48836;DHT22;62581;47.342;7.908;2023-03-23T11:24:12;19.10;99.90
48836;DHT22;62581;47.342;7.908;2023-03-23T11:26:39;19.00;99.90
48836;DHT22;62581;47.342;7.908;2023-03-23T11:29:10;19.20;99.90
48836;DHT22;62581;47.342;7.908;2023-03-23T11:31:39;19.10;99.90
48836;DHT22;62581;47.342;7.908;2023-03-23T11:34:09;19.10;99.90
48836;DHT22;62581;47.342;7.908;2023-03-23T11:36:38;19.00;99.90
48836;DHT22;62581;47.342;7.908;2023-03-23T11:39:18;19.00;99.90
48836;DHT22;62581;47.342;7.908;2023-03-23T11:41:46;18.80;99.90
48836;DHT22;62581;47.342;7.908;2023-03-23T11:44:13;18.70;99.90
48836;DHT22;62581;47.342;7.908;2023-03-23T11:46:42;18.80;99.90
48836;DHT22;62581;47.342;7.908;2023-03-23T11:49:14;18.90;99.90
48836;DHT22;62581;47.342;7.908;2023-03-23T11:51:45;19.00;99.90
48836;DHT22;62581;47.342;7.908;2023-03-23T11:54:15;18.90;99.90
48836;DHT22;62581;47.342;7.908;2023-03-23T11:56:43;19.00;99.90
48836;DHT22;62581;47.342;7.908;2023-03-23T11:59:11;19.00;99.90
48836;DHT22;62581;47.342;7.908;2023-03-23T12:01:50;19.00;99.90
48836;DHT22;62581;47.342;7.908;2023-03-23T12:07:09;19.10;99.90
48836;DHT22;62581;47.342;7.908;2023-03-23T12:09:41;19.20;99.90
48836;DHT22;62581;47.342;7.908;2023-03-23T12:12:11;19.00;99.90
48836;DHT22;62581;47.342;7.908;2023-03-23T12:14:41;19.00;99.90
48836;DHT22;62581;47.342;7.908;2023-03-23T12:17:14;18.70;99.90
48836;DHT22;62581;47.342;7.908;2023-03-23T12:19:46;18.60;99.90
48836;DHT22;62581;47.342;7.908;2023-03-23T12:22:18;18.50;99.90
48836;DHT22;62581;47.342;7.908;2023-03-23T12:24:52;18.40;99.90
48836;DHT22;62581;47.342;7.908;2023-03-23T12:27:23;18.50;99.90
48836;DHT22;62581;47.342;7.908;2023-03-23T12:29:55;18.80;99.90
48836;DHT22;62581;47.342;7.908;2023-03-23T12:32:31;19.00;99.90
48836;DHT22;62581;47.342;7.908;2023-03-23T12:35:06;19.10;99.90
48836;DHT22;62581;47.342;7.908;2023-03-23T12:37:41;19.00;99.90
48836;DHT22;62581;47.342;7.908;2023-03-23T12:40:19;18.90;99.90
48836;DHT22;62581;47.342;7.908;2023-03-23T12:42:51;18.90;99.90
48836;DHT22;62581;47.342;7.908;2023-03-23T12:45:22;18.70;99.90
48836;DHT22;62581;47.342;7.908;2023-03-23T12:47:54;18.60;99.90
48836;DHT22;62581;47.342;7.908;2023-03-23T12:50:25;18.50;99.90
48836;DHT22;62581;47.342;7.908;2023-03-23T12:52:55;18.50;99.90
48836;DHT22;62581;47.342;7.908;2023-03-23T12:55:26;18.70;99.90
48836;DHT22;62581;47.342;7.908;2023-03-23T12:57:56;18.70;99.90
48836;DHT22;62581;47.342;7.908;2023-03-23T13:00:25;18.80;99.90
48836;DHT22;62581;47.342;7.908;2023-03-23T13:02:57;19.00;99.90
48836;DHT22;62581;47.342;7.908;2023-03-23T13:05:36;19.10;99.90
48836;DHT22;62581;47.342;7.908;2023-03-23T13:08:08;19.00;99.90
48836;DHT22;62581;47.342;7.908;2023-03-23T13:10:38;19.10;99.90
48836;DHT22;62581;47.342;7.908;2023-03-23T13:13:07;19.20;99.90
48836;DHT22;62581;47.342;7.908;2023-03-23T13:15:39;19.40;99.90
48836;DHT22;62581;47.342;7.908;2023-03-23T13:18:10;19.40;99.90
48836;DHT22;62581;47.342;7.908;2023-03-23T13:20:41;19.40;99.90
48836;DHT22;62581;47.342;7.908;2023-03-23T13:23:14;19.30;99.90
48836;DHT22;62581;47.342;7.908;2023-03-23T13:25:45;19.20;99.90
48836;DHT22;62581;47.342;7.908;2023-03-23T13:28:14;19.20;99.90
48836;DHT22;62581;47.342;7.908;2023-03-23T13:30:41;19.30;99.90
48836;DHT22;62581;47.342;7.908;2023-03-23T13:33:18;19.40;99.90
48836;DHT22;62581;47.342;7.908;2023-03-23T13:35:46;19.60;99.90
48836;DHT22;62581;47.342;7.908;2023-03-23T13:38:19;19.50;99.90
48836;DHT22;62581;47.342;7.908;2023-03-23T13:40:47;19.40;99.80
48836;DHT22;62581;47.342;7.908;2023-03-23T13:43:18;19.30;99.90
48836;DHT22;62581;47.342;7.908;2023-03-23T13:45:51;19.30;99.90
48836;DHT22;62581;47.342;7.908;2023-03-23T13:48:20;19.20;99.50
48836;DHT22;62581;47.342;7.908;2023-03-23T13:50:49;19.00;99.50
48836;DHT22;62581;47.342;7.908;2023-03-23T13:53:23;19.00;99.30
48836;DHT22;62581;47.342;7.908;2023-03-23T13:55:51;18.80;99.60
48836;DHT22;62581;47.342;7.908;2023-03-23T13:58:22;18.90;99.90
48836;DHT22;62581;47.342;7.908;2023-03-23T14:01:00;18.90;99.60
48836;DHT22;62581;47.342;7.908;2023-03-23T14:03:32;18.80;99.80
48836;DHT22;62581;47.342;7.908;2023-03-23T14:06:01;18.80;99.90
48836;DHT22;62581;47.342;7.908;2023-03-23T14:08:38;18.80;99.90
48836;DHT22;62581;47.342;7.908;2023-03-23T14:11:13;18.80;99.90
48836;DHT22;62581;47.342;7.908;2023-03-23T14:13:42;18.70;99.90
48836;DHT22;62581;47.342;7.908;2023-03-23T14:16:14;18.60;99.90
48836;DHT22;62581;47.342;7.908;2023-03-23T14:18:42;18.50;99.90
48836;DHT22;62581;47.342;7.908;2023-03-23T14:21:14;18.50;99.90
48836;DHT22;62581;47.342;7.908;2023-03-23T14:23:42;18.50;99.90
48836;DHT22;62581;47.342;7.908;2023-03-23T14:26:10;18.30;99.90
48836;DHT22;62581;47.342;7.908;2023-03-23T14:28:40;18.20;99.90
48836;DHT22;62581;47.342;7.908;2023-03-23T14:33:38;18.20;99.90
48836;DHT22;62581;47.342;7.908;2023-03-23T14:36:07;18.20;99.90
48836;DHT22;62581;47.342;7.908;2023-03-23T14:38:34;18.30;99.90
48836;DHT22;62581;47.342;7.908;2023-03-23T14:41:03;18.40;99.90
48836;DHT22;62581;47.342;7.908;2023-03-23T14:43:30;18.40;99.90
48836;DHT22;62581;47.342;7.908;2023-03-23T14:46:00;18.50;99.90
48836;DHT22;62581;47.342;7.908;2023-03-23T14:48:27;18.50;99.90
48836;DHT22;62581;47.342;7.908;2023-03-23T14:50:56;18.50;99.90
48836;DHT22;62581;47.342;7.908;2023-03-23T14:53:24;18.50;99.90
48836;DHT22;62581;47.342;7.908;2023-03-23T14:55:52;18.50;99.90
48836;DHT22;62581;47.342;7.908;2023-03-23T14:58:22;18.40;99.90
48836;DHT22;62581;47.342;7.908;2023-03-23T15:00:52;18.40;99.90
48836;DHT22;62581;47.342;7.908;2023-03-23T15:03:20;18.40;99.90
48836;DHT22;62581;47.342;7.908;2023-03-23T15:05:48;18.40;99.90
48836;DHT22;62581;47.342;7.908;2023-03-23T15:08:17;18.40;99.90
48836;DHT22;62581;47.342;7.908;2023-03-23T15:10:51;18.50;99.90
48836;DHT22;62581;47.342;7.908;2023-03-23T15:13:18;18.40;99.90
48836;DHT22;62581;47.342;7.908;2023-03-23T15:15:46;18.30;99.90
48836;DHT22;62581;47.342;7.908;2023-03-23T15:18:19;18.30;99.90
48836;DHT22;62581;47.342;7.908;2023-03-23T15:20:49;18.20;99.90
48836;DHT22;62581;47.342;7.908;2023-03-23T15:23:17;18.20;99.90
48836;DHT22;62581;47.342;7.908;2023-03-23T15:25:47;18.20;99.90
48836;DHT22;62581;47.342;7.908;2023-03-23T15:28:15;18.10;99.90
48836;DHT22;62581;47.342;7.908;2023-03-23T15:30:48;18.00;99.90
48836;DHT22;62581;47.342;7.908;2023-03-23T15:33:15;18.00;99.90
48836;DHT22;62581;47.342;7.908;2023-03-23T15:35:45;18.00;99.90
48836;DHT22;62581;47.342;7.908;2023-03-23T15:38:16;17.90;99.90
48836;DHT22;62581;47.342;7.908;2023-03-23T15:40:44;17.90;99.90
48836;DHT22;62581;47.342;7.908;2023-03-23T15:43:15;17.90;99.90
48836;DHT22;62581;47.342;7.908;2023-03-23T15:45:53;17.80;99.90
48836;DHT22;62581;47.342;7.908;2023-03-23T15:48:21;17.80;99.90
48836;DHT22;62581;47.342;7.908;2023-03-23T15:50:48;17.80;99.90